Detall de PIREP

Printer-friendly versionPDF version

[2015/08/11 10:48:00]
Flight IATA:CT2103
Pilot Number:030
Company ICAO:CAT
Aircraft Type:B738/F
PAX:119
Departing Airport: LEAM
Destination Airport: LEVC
Online: VATSIM
Route:DOSEK G850 RESTU UN860 NARGO
Flight Level:FL300
No Slew and time accel
No pause
Crash detect
Detect pilot in Cockpit between each 30 and 45 minutes
10:48 Zero fuel Weight: 137015 Lbs, Fuel Weight: 9243 Lbs
10:48 VATSIM:LEAM 111030Z VRB02KT CAVOK 29/25 Q1013
10:48 VATSIM:LEVC 111030Z 09003KT 030V140 9999 FEW030 30/21 Q1014 NOSIG
10:55 Parking Brakes off
11:01 Take-off
11:01 Take off Weight: 138160 Lbs
11:01 Wind: 003º @ 002 Knots Heading: 252º
11:01 POS N36º 50´ 38´´ W002º 22´ 08´´
11:01 Flaps:3 at 150 Knots
11:01 Gear Up: 153 Knots
11:01 Flaps:1 at 192 Knots
11:02 Flaps:0 at 200 Knots
11:14 TOC
11:14 Fuel Weight: 5930 Lb
11:16 Wind:268º@042 Knots Heading: 022º Ground Speed: 510 Knots Altitude 30019 ft
11:21 TOD
11:21 Fuel Weight: 4909 Lb
11:30 Flaps:1 at 229 Knots
11:31 Wind:216º@012 Knots Heading: 356º Ground Speed: 258 Knots Altitude 9671 ft
11:31 Flaps:2 at 204 Knots
11:34 Flaps:4 at 184 Knots
11:35 Gear Down: 162 Knots
11:35 Flaps:5 at 162 Knots
11:36 Flaps:6 at 147 Knots
11:38 TouchDown:Rate -254 ft/min Speed: 153 Knots
11:39 VATSIM:LEVC 111130Z 11006KT 070V160 9999 FEW030 32/21 Q1013 NOSIG
11:39 Land
11:39 Wind:127º@006 Knots
11:39 Heading: 117º
11:39 Flight Duration: 00:38
11:39 Landing Weight: 132972 Lbs
11:39 POS N39º 29´ 23´´ W000º 28´ 58´´
11:41 Parking brakes on
11:41 Block to Block Duration: 00:46
11:41 Final Fuel: 3309 Lbls
11:41 Spent Fuel: 5934 Lbls
11:41 Flight Length: 237 NM
11:41 TOD Land Length: 93 NM

Exportar CSV

Powered by Drupal - Modified by Danger4k